Time;durP1;ratioP1;P1;durP2;ratioP2;P2;SDS_P1;SDS_P2;PMS_P1;PMS_P2;Temp;Humidity;BMP_temperature;BMP_pressure;BME280_temperature;BME280_humidity;BME280_pressure;Samples;Min_cycle;Max_cycle;Signal;HPM_P1;HPM_P2
2022/04/20 00:01:05;;;;;;;3.70;2.77;;;;;;;;;;5074476;28;20195;-52
2022/04/20 00:03:31;;;;;;;2.87;2.40;;;;;;;;;;5074415;28;20640;-51
2022/04/20 00:05:58;;;;;;;4.23;3.10;;;;;;;;;;5074377;28;20229;-51
2022/04/20 00:08:25;;;;;;;3.60;2.43;;;;;;;;;;5074114;28;20196;-51
2022/04/20 00:10:51;;;;;;;4.10;2.43;;;;;;;;;;5074241;28;20205;-52
2022/04/20 00:13:17;;;;;;;2.83;2.53;;;;;;;;;;5074000;28;20200;-52
2022/04/20 00:15:43;;;;;;;5.13;3.00;;;;;;;;;;5074287;28;20252;-52
2022/04/20 00:18:09;;;;;;;4.77;2.60;;;;;;;;;;5074158;28;20192;-51
2022/04/20 00:20:35;;;;;;;4.47;3.20;;;;;;;;;;5074007;28;20214;-51
2022/04/20 00:23:01;;;;;;;2.87;2.40;;;;;;;;;;5073985;28;20257;-51
2022/04/20 00:25:28;;;;;;;4.57;2.80;;;;;;;;;;5073610;28;20239;-52
2022/04/20 00:27:54;;;;;;;3.83;2.83;;;;;;;;;;5073926;28;20201;-51
2022/04/20 00:30:20;;;;;;;3.17;2.83;;;;;;;;;;5073816;28;20195;-52
2022/04/20 00:32:46;;;;;;;2.83;2.50;;;;;;;;;;5073790;28;20230;-52
2022/04/20 00:35:12;;;;;;;3.90;3.00;;;;;;;;;;5073814;28;20203;-53
2022/04/20 00:37:39;;;;;;;2.70;2.33;;;;;;;;;;5073549;28;20240;-52
2022/04/20 00:40:06;;;;;;;2.70;2.50;;;;;;;;;;5073731;28;20192;-52
2022/04/20 00:42:35;;;;;;;4.40;2.60;;;;;;;;;;5073548;28;20264;-51
2022/04/20 00:45:01;;;;;;;6.70;3.63;;;;;;;;;;5073769;28;20210;-51
2022/04/20 00:47:28;;;;;;;5.97;2.67;;;;;;;;;;5073617;28;20560;-51
2022/04/20 00:49:55;;;;;;;3.40;2.60;;;;;;;;;;5073524;28;20196;-51
2022/04/20 00:52:21;;;;;;;5.37;2.63;;;;;;;;;;5073517;28;20249;-51
2022/04/20 00:54:47;;;;;;;4.07;2.60;;;;;;;;;;5073276;28;20225;-52
2022/04/20 00:57:15;;;;;;;3.40;2.90;;;;;;;;;;5073364;28;20219;-51
2022/04/20 00:59:43;;;;;;;3.27;2.80;;;;;;;;;;5073233;28;20278;-52
2022/04/20 01:02:10;;;;;;;3.90;2.97;;;;;;;;;;5073196;28;20199;-51
2022/04/20 01:04:36;;;;;;;3.40;2.67;;;;;;;;;;5073097;28;20764;-52
2022/04/20 01:07:10;;;;;;;4.80;3.10;;;;;;;;;;5073239;28;20290;-51
2022/04/20 01:09:36;;;;;;;4.23;2.70;;;;;;;;;;5073014;28;20285;-51
2022/04/20 01:12:02;;;;;;;3.50;2.57;;;;;;;;;;5073088;28;20287;-51
2022/04/20 01:14:29;;;;;;;3.77;3.20;;;;;;;;;;5073032;28;20199;-52
2022/04/20 01:16:56;;;;;;;3.77;2.70;;;;;;;;;;5071065;28;20227;-51
2022/04/20 01:19:22;;;;;;;3.27;2.53;;;;;;;;;;5072845;28;20226;-51
2022/04/20 01:21:49;;;;;;;3.10;2.80;;;;;;;;;;5072888;28;20689;-51
2022/04/20 01:24:15;;;;;;;3.67;2.90;;;;;;;;;;5072343;28;20579;-51
2022/04/20 01:26:41;;;;;;;3.23;2.70;;;;;;;;;;5072452;28;20224;-52
2022/04/20 01:29:08;;;;;;;3.20;2.50;;;;;;;;;;5072790;28;20207;-51
2022/04/20 01:31:34;;;;;;;5.50;3.07;;;;;;;;;;5072433;28;20739;-52
2022/04/20 01:34:00;;;;;;;3.77;2.60;;;;;;;;;;5072830;28;20188;-51
2022/04/20 01:36:25;;;;;;;3.70;2.77;;;;;;;;;;5072315;28;20224;-51
2022/04/20 01:38:53;;;;;;;2.60;2.40;;;;;;;;;;5072590;28;20870;-51
2022/04/20 01:41:19;;;;;;;3.97;2.87;;;;;;;;;;5072436;28;20199;-52
2022/04/20 01:43:45;;;;;;;3.87;2.57;;;;;;;;;;5072478;28;20196;-52
2022/04/20 01:46:11;;;;;;;4.87;2.60;;;;;;;;;;5072421;28;20202;-52
2022/04/20 01:48:37;;;;;;;2.73;2.50;;;;;;;;;;5072331;28;20256;-52
2022/04/20 01:53:47;;;;;;;2.40;2.20;;;;;;;;;;5072285;28;20253;-52
2022/04/20 01:56:15;;;;;;;7.37;2.67;;;;;;;;;;5072198;28;20698;-51
2022/04/20 01:58:41;;;;;;;3.07;2.50;;;;;;;;;;5071984;28;20192;-52
2022/04/20 02:02:34;;;;;;;2.60;2.03;;;;;;;;;;5072195;28;20203;-52
2022/04/20 02:03:53;;;;;;;2.90;2.30;;;;;;;;;;5072184;28;20210;-52
2022/04/20 02:06:19;;;;;;;3.67;2.50;;;;;;;;;;5072139;28;20600;-53
2022/04/20 02:08:45;;;;;;;3.40;2.70;;;;;;;;;;5072144;28;20199;-52
2022/04/20 02:11:11;;;;;;;3.87;2.30;;;;;;;;;;5072104;28;20187;-52
2022/04/20 02:13:39;;;;;;;3.73;2.17;;;;;;;;;;5072022;28;20211;-52
2022/04/20 02:16:05;;;;;;;2.50;2.30;;;;;;;;;;5071967;28;20216;-52
2022/04/20 02:18:31;;;;;;;5.50;3.00;;;;;;;;;;5072026;28;20192;-52
2022/04/20 02:20:57;;;;;;;2.73;2.47;;;;;;;;;;5072123;28;20745;-52
2022/04/20 02:23:23;;;;;;;2.30;2.10;;;;;;;;;;5071754;28;20282;-52
2022/04/20 02:25:49;;;;;;;2.77;2.40;;;;;;;;;;5071603;28;20571;-52
2022/04/20 02:28:15;;;;;;;2.60;2.40;;;;;;;;;;5072118;28;20191;-52
2022/04/20 02:30:43;;;;;;;3.50;2.33;;;;;;;;;;5071831;28;20241;-51
2022/04/20 02:33:09;;;;;;;2.60;2.40;;;;;;;;;;5071971;28;20520;-52
2022/04/20 02:35:36;;;;;;;3.33;2.20;;;;;;;;;;5071749;28;20338;-52
2022/04/20 02:38:02;;;;;;;4.60;2.50;;;;;;;;;;5074684;28;20207;-52
2022/04/20 02:40:30;;;;;;;4.23;2.43;;;;;;;;;;5075961;28;20192;-52
2022/04/20 02:42:56;;;;;;;2.90;2.60;;;;;;;;;;5076013;28;20475;-52
2022/04/20 02:45:22;;;;;;;4.33;2.60;;;;;;;;;;5074008;28;20820;-52
2022/04/20 02:47:50;;;;;;;3.63;2.30;;;;;;;;;;5075856;28;20188;-52
2022/04/20 02:50:16;;;;;;;3.90;2.50;;;;;;;;;;5075834;28;20445;-52
2022/04/20 02:52:42;;;;;;;5.03;2.47;;;;;;;;;;5075610;28;20191;-51
2022/04/20 02:55:08;;;;;;;3.00;2.40;;;;;;;;;;5075657;28;20448;-50
2022/04/20 02:57:34;;;;;;;3.73;3.00;;;;;;;;;;5075443;28;20772;-51
2022/04/20 03:00:00;;;;;;;3.90;2.80;;;;;;;;;;5075460;28;20465;-51
2022/04/20 03:02:26;;;;;;;2.63;2.40;;;;;;;;;;5075420;28;20207;-51
2022/04/20 03:04:53;;;;;;;3.43;2.70;;;;;;;;;;5075612;28;20278;-52
2022/04/20 03:07:20;;;;;;;4.13;2.93;;;;;;;;;;5075311;28;20484;-52
2022/04/20 03:09:46;;;;;;;3.67;2.50;;;;;;;;;;5075421;28;20429;-52
2022/04/20 03:12:12;;;;;;;4.20;2.97;;;;;;;;;;5075447;28;20209;-52
2022/04/20 03:14:37;;;;;;;3.00;2.70;;;;;;;;;;5075150;28;20214;-52
2022/04/20 03:17:04;;;;;;;5.03;2.87;;;;;;;;;;5075199;28;20247;-51
2022/04/20 03:19:30;;;;;;;3.30;2.93;;;;;;;;;;5075207;28;20199;-53
2022/04/20 03:21:57;;;;;;;3.43;2.80;;;;;;;;;;5075125;28;20461;-52
2022/04/20 03:24:23;;;;;;;3.63;2.63;;;;;;;;;;5074729;28;20462;-52
2022/04/20 03:26:49;;;;;;;4.37;2.97;;;;;;;;;;5074869;28;20440;-52
2022/04/20 03:29:15;;;;;;;3.20;2.90;;;;;;;;;;5075127;28;20599;-52
2022/04/20 03:31:41;;;;;;;4.00;2.90;;;;;;;;;;5074840;28;20192;-52
2022/04/20 03:34:07;;;;;;;3.13;2.83;;;;;;;;;;5074956;28;20842;-52
2022/04/20 03:36:35;;;;;;;4.03;3.07;;;;;;;;;;5074473;28;20975;-52
2022/04/20 03:39:02;;;;;;;3.83;2.87;;;;;;;;;;5074873;28;20468;-52
2022/04/20 03:41:28;;;;;;;3.57;2.73;;;;;;;;;;5074667;28;20511;-51
2022/04/20 03:43:54;;;;;;;4.17;3.00;;;;;;;;;;5074673;28;20441;-52
2022/04/20 03:46:22;;;;;;;4.33;3.23;;;;;;;;;;5074670;28;20192;-52
2022/04/20 03:48:49;;;;;;;4.37;2.83;;;;;;;;;;5074148;28;20204;-52
2022/04/20 03:51:15;;;;;;;4.10;3.33;;;;;;;;;;5074731;28;20529;-52
2022/04/20 03:53:41;;;;;;;4.70;3.00;;;;;;;;;;5074450;28;20434;-52
2022/04/20 03:56:08;;;;;;;6.07;3.50;;;;;;;;;;5074492;28;20481;-52
2022/04/20 03:58:35;;;;;;;4.37;3.33;;;;;;;;;;5074452;28;20203;-52
2022/04/20 04:01:01;;;;;;;5.47;3.20;;;;;;;;;;5074495;28;20446;-52
2022/04/20 04:03:27;;;;;;;4.43;3.50;;;;;;;;;;5074350;28;20430;-52
2022/04/20 04:05:53;;;;;;;3.30;3.00;;;;;;;;;;5074386;28;20430;-52
2022/04/20 04:08:19;;;;;;;3.97;3.10;;;;;;;;;;5074204;28;20513;-53
2022/04/20 04:10:45;;;;;;;3.40;3.10;;;;;;;;;;5074291;28;20868;-51
2022/04/20 04:13:12;;;;;;;4.30;3.10;;;;;;;;;;5074268;28;20199;-52
2022/04/20 04:15:38;;;;;;;4.43;3.40;;;;;;;;;;5073961;28;20230;-53
2022/04/20 04:18:04;;;;;;;3.33;3.03;;;;;;;;;;5074093;28;20473;-53
2022/04/20 04:20:31;;;;;;;3.40;3.10;;;;;;;;;;5074123;28;20706;-53
2022/04/20 04:22:57;;;;;;;3.73;3.10;;;;;;;;;;5074173;28;20491;-52
2022/04/20 04:25:23;;;;;;;3.63;3.27;;;;;;;;;;5073706;28;20883;-51
2022/04/20 04:27:49;;;;;;;4.07;3.60;;;;;;;;;;5074014;28;20196;-50
2022/04/20 04:30:16;;;;;;;6.33;3.60;;;;;;;;;;5074017;28;20434;-50
2022/04/20 04:32:42;;;;;;;4.93;3.50;;;;;;;;;;5073781;28;20226;-50
2022/04/20 04:35:08;;;;;;;7.53;3.50;;;;;;;;;;5073952;28;20937;-50
2022/04/20 04:37:34;;;;;;;4.00;3.60;;;;;;;;;;5073444;28;20592;-50
2022/04/20 04:40:00;;;;;;;6.20;3.63;;;;;;;;;;5073822;28;20438;-49
2022/04/20 04:42:26;;;;;;;3.60;3.30;;;;;;;;;;5073523;28;20653;-50
2022/04/20 04:44:52;;;;;;;3.80;3.13;;;;;;;;;;5073532;28;20444;-50
2022/04/20 04:50:05;;;;;;;3.60;3.30;;;;;;;;;;5073521;28;20306;-50
2022/04/20 04:52:32;;;;;;;4.47;3.70;;;;;;;;;;5073285;28;20555;-50
2022/04/20 04:54:57;;;;;;;5.90;3.60;;;;;;;;;;5073493;28;20441;-51
2022/04/20 04:57:23;;;;;;;4.00;3.60;;;;;;;;;;5073190;28;20486;-50
2022/04/20 04:59:49;;;;;;;3.93;3.30;;;;;;;;;;5072414;28;20223;-50
2022/04/20 05:02:15;;;;;;;3.73;3.33;;;;;;;;;;5073348;28;20229;-51
2022/04/20 05:04:43;;;;;;;3.97;3.13;;;;;;;;;;5073102;28;20195;-50
2022/04/20 05:07:09;;;;;;;3.40;3.10;;;;;;;;;;5073039;28;20204;-50
2022/04/20 05:09:35;;;;;;;3.77;3.27;;;;;;;;;;5072769;28;20429;-51
2022/04/20 05:12:01;;;;;;;4.30;3.33;;;;;;;;;;5072972;28;20642;-51
2022/04/20 05:14:27;;;;;;;3.90;3.50;;;;;;;;;;5072947;28;20203;-51
2022/04/20 05:16:55;;;;;;;5.70;3.70;;;;;;;;;;5072637;28;20480;-51
2022/04/20 05:19:21;;;;;;;4.10;3.30;;;;;;;;;;5072627;28;20282;-51
2022/04/20 05:21:49;;;;;;;4.07;3.60;;;;;;;;;;5072187;28;20442;-51
2022/04/20 05:24:15;;;;;;;5.70;3.47;;;;;;;;;;5072567;28;20470;-51
2022/04/20 05:26:41;;;;;;;5.73;3.40;;;;;;;;;;5072521;28;20496;-50
2022/04/20 05:29:07;;;;;;;4.50;3.40;;;;;;;;;;5072693;28;20798;-50
2022/04/20 05:31:33;;;;;;;5.93;3.60;;;;;;;;;;5072065;28;20832;-51
2022/04/20 05:34:00;;;;;;;4.53;3.40;;;;;;;;;;5072563;28;20955;-51
2022/04/20 05:41:39;;;;;;;4.23;3.63;;;;;;;;;;5072208;28;20998;-51
2022/04/20 05:42:04;;;;;;;7.87;3.70;;;;;;;;;;5072591;28;20488;-54
2022/04/20 05:44:30;;;;;;;4.90;3.97;;;;;;;;;;5072328;28;20452;-51
2022/04/20 05:46:57;;;;;;;6.53;3.53;;;;;;;;;;5072273;28;20986;-52
2022/04/20 05:49:23;;;;;;;6.37;3.67;;;;;;;;;;5072260;28;20442;-51
2022/04/20 05:51:49;;;;;;;5.87;3.90;;;;;;;;;;5072129;28;20800;-51
2022/04/20 05:54:16;;;;;;;3.77;3.43;;;;;;;;;;5072424;28;20200;-51
2022/04/20 05:56:42;;;;;;;6.97;3.77;;;;;;;;;;5072193;28;20223;-51
2022/04/20 05:59:08;;;;;;;5.97;3.53;;;;;;;;;;5072227;28;20684;-52
2022/04/20 06:01:34;;;;;;;4.23;3.70;;;;;;;;;;5071966;28;20200;-51
2022/04/20 06:04:00;;;;;;;4.00;3.47;;;;;;;;;;5072308;28;20205;-51
2022/04/20 06:06:26;;;;;;;3.77;3.43;;;;;;;;;;5071966;28;20679;-52
2022/04/20 06:08:52;;;;;;;5.40;3.43;;;;;;;;;;5072202;28;20325;-52
2022/04/20 06:11:19;;;;;;;4.33;3.57;;;;;;;;;;5071576;28;20218;-51
2022/04/20 06:13:45;;;;;;;3.33;3.00;;;;;;;;;;5071984;28;20445;-51
2022/04/20 06:16:11;;;;;;;3.87;3.57;;;;;;;;;;5071647;28;20446;-52
2022/04/20 06:18:37;;;;;;;6.77;3.77;;;;;;;;;;5071759;28;20282;-52
2022/04/20 06:21:05;;;;;;;5.07;3.33;;;;;;;;;;5071750;28;20199;-52
2022/04/20 06:23:31;;;;;;;7.67;3.97;;;;;;;;;;5071698;28;20194;-52
2022/04/20 06:25:57;;;;;;;3.70;3.27;;;;;;;;;;5071800;28;20239;-53
2022/04/20 06:28:25;;;;;;;3.73;3.27;;;;;;;;;;5071675;28;20196;-52
2022/04/20 06:30:52;;;;;;;3.83;3.53;;;;;;;;;;5071682;28;20731;-52
2022/04/20 06:33:18;;;;;;;4.37;3.90;;;;;;;;;;5071580;28;20211;-54
2022/04/20 06:35:44;;;;;;;7.57;4.40;;;;;;;;;;5071538;28;20204;-51
2022/04/20 06:38:10;;;;;;;6.20;3.63;;;;;;;;;;5070123;28;20234;-52
2022/04/20 06:40:38;;;;;;;5.03;3.40;;;;;;;;;;5071564;28;20233;-52
2022/04/20 06:43:05;;;;;;;5.53;3.40;;;;;;;;;;5071357;28;20200;-54
2022/04/20 06:45:32;;;;;;;5.77;3.70;;;;;;;;;;5071803;28;20297;-53
2022/04/20 06:47:59;;;;;;;4.60;3.10;;;;;;;;;;5071795;28;20206;-53
2022/04/20 06:50:25;;;;;;;4.73;3.53;;;;;;;;;;5071245;28;20222;-52
2022/04/20 06:58:35;;;;;;;4.73;3.20;;;;;;;;;;5071406;28;20744;-52
2022/04/20 07:01:04;;;;;;;5.27;3.53;;;;;;;;;;5071617;28;20329;-53
2022/04/20 07:03:31;;;;;;;4.93;3.30;;;;;;;;;;5071451;28;20286;-51
2022/04/20 07:05:57;;;;;;;4.20;3.27;;;;;;;;;;5071526;28;20203;-54
2022/04/20 07:08:23;;;;;;;7.73;3.40;;;;;;;;;;5071246;28;20192;-55
2022/04/20 07:10:53;;;;;;;5.73;3.60;;;;;;;;;;5071220;28;20207;-54
2022/04/20 07:13:19;;;;;;;6.73;3.33;;;;;;;;;;5070951;28;20203;-52
2022/04/20 07:15:45;;;;;;;3.97;3.50;;;;;;;;;;5071229;28;20200;-52
2022/04/20 07:18:13;;;;;;;4.80;3.47;;;;;;;;;;5070982;28;20230;-52
2022/04/20 07:20:39;;;;;;;4.67;3.13;;;;;;;;;;5071097;28;20662;-53
2022/04/20 07:23:05;;;;;;;4.33;3.30;;;;;;;;;;5072125;28;20195;-53
2022/04/20 07:25:32;;;;;;;8.27;4.90;;;;;;;;;;5074751;28;20328;-55
2022/04/20 07:27:58;;;;;;;7.37;3.67;;;;;;;;;;5075052;28;20199;-53
2022/04/20 07:30:26;;;;;;;5.77;3.53;;;;;;;;;;5074931;28;20196;-54
2022/04/20 07:32:52;;;;;;;6.93;3.43;;;;;;;;;;5074881;28;20200;-54
2022/04/20 07:35:20;;;;;;;4.80;3.10;;;;;;;;;;5074823;28;20212;-53
2022/04/20 07:37:46;;;;;;;4.67;3.37;;;;;;;;;;5074548;28;20636;-52
2022/04/20 07:40:15;;;;;;;5.50;3.20;;;;;;;;;;5074608;28;20195;-53
2022/04/20 07:42:41;;;;;;;3.50;2.93;;;;;;;;;;5074453;28;20219;-53
2022/04/20 07:45:08;;;;;;;3.10;2.80;;;;;;;;;;5074673;28;20204;-54
2022/04/20 07:47:37;;;;;;;4.77;3.00;;;;;;;;;;5074500;28;20192;-53
2022/04/20 07:50:18;;;;;;;3.80;3.03;;;;;;;;;;5074831;28;20206;-54
2022/04/20 07:52:47;;;;;;;4.63;3.00;;;;;;;;;;5074438;28;20207;-55
2022/04/20 07:55:14;;;;;;;4.37;2.97;;;;;;;;;;5074134;28;20278;-49
2022/04/20 07:57:43;;;;;;;5.37;3.07;;;;;;;;;;5074080;28;20614;-51
2022/04/20 08:00:09;;;;;;;5.00;3.37;;;;;;;;;;5074407;28;20210;-49
2022/04/20 08:02:35;;;;;;;4.50;2.77;;;;;;;;;;5074245;28;20200;-46
2022/04/20 08:05:02;;;;;;;4.67;2.60;;;;;;;;;;5073944;28;20200;-49
2022/04/20 08:07:28;;;;;;;4.20;2.33;;;;;;;;;;5073986;28;20265;-47
2022/04/20 08:09:55;;;;;;;2.93;2.63;;;;;;;;;;5073831;28;20276;-47
2022/04/20 08:12:21;;;;;;;3.03;2.73;;;;;;;;;;5073954;28;20279;-50
2022/04/20 08:14:47;;;;;;;5.17;3.50;;;;;;;;;;5073787;28;20221;-49
2022/04/20 08:17:13;;;;;;;4.27;2.80;;;;;;;;;;5074056;28;20781;-51
2022/04/20 08:19:39;;;;;;;5.83;2.80;;;;;;;;;;5073789;28;20200;-52
2022/04/20 08:22:05;;;;;;;3.90;2.90;;;;;;;;;;5073894;28;20227;-50
2022/04/20 08:24:31;;;;;;;3.53;3.03;;;;;;;;;;5073603;28;20218;-53
2022/04/20 08:27:02;;;;;;;3.13;2.70;;;;;;;;;;5073942;28;20607;-52
2022/04/20 08:29:28;;;;;;;3.20;2.57;;;;;;;;;;5073805;28;20208;-53
2022/04/20 08:31:54;;;;;;;3.10;2.70;;;;;;;;;;5073551;28;20230;-53
2022/04/20 08:34:20;;;;;;;8.67;3.00;;;;;;;;;;5073526;28;20231;-52
2022/04/20 08:36:46;;;;;;;3.07;2.83;;;;;;;;;;5073371;28;20319;-54
2022/04/20 08:39:12;;;;;;;4.00;3.43;;;;;;;;;;5073699;28;20273;-51
2022/04/20 08:41:38;;;;;;;3.37;2.97;;;;;;;;;;5073383;28;20249;-53
2022/04/20 08:44:06;;;;;;;4.03;3.10;;;;;;;;;;5073354;28;20208;-52
2022/04/20 08:46:34;;;;;;;6.70;3.40;;;;;;;;;;5073301;28;20196;-52
2022/04/20 08:49:00;;;;;;;4.23;2.70;;;;;;;;;;5073388;28;20199;-51
2022/04/20 08:52:37;;;;;;;3.80;2.90;;;;;;;;;;5073194;28;20200;-52
2022/04/20 08:54:12;;;;;;;5.30;2.73;;;;;;;;;;5073188;28;20206;-52
2022/04/20 08:59:26;;;;;;;4.90;2.80;;;;;;;;;;5073383;28;20249;-52
2022/04/20 09:01:52;;;;;;;8.43;3.27;;;;;;;;;;5073144;28;20307;-52
2022/04/20 09:04:18;;;;;;;4.90;3.10;;;;;;;;;;5073243;28;20298;-53
2022/04/20 09:06:44;;;;;;;4.87;3.03;;;;;;;;;;5072875;28;20225;-52
2022/04/20 09:09:10;;;;;;;4.50;2.90;;;;;;;;;;5072840;28;20192;-51
2022/04/20 09:11:38;;;;;;;3.93;2.63;;;;;;;;;;5072538;28;20654;-50
2022/04/20 09:14:13;;;;;;;3.63;3.00;;;;;;;;;;5072616;28;20237;-52
2022/04/20 09:16:41;;;;;;;3.90;2.77;;;;;;;;;;5072358;28;20223;-52
2022/04/20 09:19:07;;;;;;;3.60;3.20;;;;;;;;;;5072561;28;20584;-52
2022/04/20 09:21:36;;;;;;;4.23;2.90;;;;;;;;;;5072107;28;20207;-52
2022/04/20 09:24:06;;;;;;;4.00;3.40;;;;;;;;;;5072415;28;20239;-52
2022/04/20 09:26:32;;;;;;;3.67;2.77;;;;;;;;;;5070841;28;20707;-52
2022/04/20 09:29:05;;;;;;;4.20;2.80;;;;;;;;;;5072668;28;20195;-52
2022/04/20 09:31:42;;;;;;;3.17;2.80;;;;;;;;;;5071799;28;20199;-50
2022/04/20 09:34:08;;;;;;;6.00;3.20;;;;;;;;;;5071446;28;20211;-52
2022/04/20 09:36:41;;;;;;;7.63;3.70;;;;;;;;;;5072384;28;20219;-50
2022/04/20 09:39:07;;;;;;;4.17;3.00;;;;;;;;;;5072452;28;20196;-50
2022/04/20 09:41:33;;;;;;;3.60;3.10;;;;;;;;;;5072101;28;20723;-51
2022/04/20 09:44:12;;;;;;;4.47;2.90;;;;;;;;;;5072063;28;20298;-51
2022/04/20 09:49:38;;;;;;;4.33;3.03;;;;;;;;;;5071929;28;20194;-51
2022/04/20 09:52:10;;;;;;;3.37;2.80;;;;;;;;;;5071712;28;20560;-51
2022/04/20 09:54:37;;;;;;;4.87;3.17;;;;;;;;;;5071908;28;20200;-51
2022/04/20 09:57:10;;;;;;;3.30;2.87;;;;;;;;;;5072007;28;20229;-52
2022/04/20 09:59:36;;;;;;;3.20;2.90;;;;;;;;;;5071755;28;20281;-51
2022/04/20 10:02:14;;;;;;;4.37;2.90;;;;;;;;;;5071818;28;20687;-51
2022/04/20 10:04:42;;;;;;;3.40;3.00;;;;;;;;;;5071671;28;20223;-51
2022/04/20 10:07:08;;;;;;;3.30;2.53;;;;;;;;;;5071591;28;20198;-51
2022/04/20 10:09:34;;;;;;;5.13;2.97;;;;;;;;;;5071611;28;20225;-52
2022/04/20 10:12:00;;;;;;;3.70;3.00;;;;;;;;;;5072103;28;20194;-50
2022/04/20 10:17:15;;;;;;;6.03;2.53;;;;;;;;;;5072147;28;20771;-51
2022/04/20 10:19:41;;;;;;;6.37;2.50;;;;;;;;;;5071913;28;20205;-51
2022/04/20 10:22:11;;;;;;;2.97;2.67;;;;;;;;;;5071779;28;20582;-51
2022/04/20 10:24:39;;;;;;;3.93;2.50;;;;;;;;;;5071458;28;20266;-51
2022/04/20 10:27:09;;;;;;;3.83;2.43;;;;;;;;;;5071792;28;20275;-52
2022/04/20 10:29:39;;;;;;;4.37;2.67;;;;;;;;;;5071658;28;20203;-50
2022/04/20 10:32:07;;;;;;;4.50;2.57;;;;;;;;;;5071951;28;20609;-52
2022/04/20 10:34:36;;;;;;;2.93;2.50;;;;;;;;;;5071694;28;20200;-51
2022/04/20 10:37:02;;;;;;;5.57;2.27;;;;;;;;;;5070551;28;20724;-53
2022/04/20 10:39:34;;;;;;;5.50;2.40;;;;;;;;;;5071737;28;20196;-52
2022/04/20 10:42:18;;;;;;;2.70;2.50;;;;;;;;;;5070648;28;20249;-52
2022/04/20 10:45:05;;;;;;;4.13;2.63;;;;;;;;;;5071687;28;20187;-51
2022/04/20 10:47:32;;;;;;;3.93;2.33;;;;;;;;;;5066887;28;20199;-51
2022/04/20 10:50:19;;;;;;;3.37;2.63;;;;;;;;;;5072079;28;20264;-51
2022/04/20 10:52:52;;;;;;;3.70;2.70;;;;;;;;;;5071639;28;20200;-51
2022/04/20 10:55:23;;;;;;;3.23;2.80;;;;;;;;;;5071778;28;20207;-52
2022/04/20 10:57:54;;;;;;;2.93;2.50;;;;;;;;;;5072347;28;20230;-50
2022/04/20 11:00:27;;;;;;;3.33;2.50;;;;;;;;;;5075594;28;20680;-51
2022/04/20 11:02:53;;;;;;;3.13;2.70;;;;;;;;;;5075488;28;20259;-52
2022/04/20 11:05:22;;;;;;;4.17;3.40;;;;;;;;;;5075376;28;20725;-51
2022/04/20 11:08:00;;;;;;;4.70;3.80;;;;;;;;;;5075324;28;20215;-52
2022/04/20 11:10:27;;;;;;;3.37;2.70;;;;;;;;;;5075276;28;20207;-52
2022/04/20 11:18:39;;;;;;;4.33;2.73;;;;;;;;;;5074210;28;20582;-52
2022/04/20 11:21:21;;;;;;;4.17;3.30;;;;;;;;;;5073218;28;20198;-52
2022/04/20 11:24:05;;;;;;;3.27;2.43;;;;;;;;;;5075079;28;20309;-52
2022/04/20 11:26:33;;;;;;;4.87;2.40;;;;;;;;;;5074909;28;20239;-51
2022/04/20 11:29:01;;;;;;;4.13;2.50;;;;;;;;;;5074957;28;20238;-53
2022/04/20 11:31:36;;;;;;;3.43;2.30;;;;;;;;;;5075074;28;20697;-52
2022/04/20 11:34:02;;;;;;;2.80;2.07;;;;;;;;;;5074381;28;20205;-53
2022/04/20 11:36:29;;;;;;;3.40;2.17;;;;;;;;;;5074665;28;20231;-50
2022/04/20 11:38:55;;;;;;;3.77;2.13;;;;;;;;;;5074615;28;20200;-52
2022/04/20 11:41:21;;;;;;;3.13;2.40;;;;;;;;;;5074616;28;20206;-52
2022/04/20 11:43:50;;;;;;;2.83;2.50;;;;;;;;;;5074516;28;20881;-52
2022/04/20 11:46:17;;;;;;;4.23;2.20;;;;;;;;;;5074602;28;20200;-51
2022/04/20 11:48:50;;;;;;;2.97;2.23;;;;;;;;;;5074255;28;20662;-51
2022/04/20 11:51:20;;;;;;;2.63;1.90;;;;;;;;;;5074500;28;20223;-52
2022/04/20 11:53:47;;;;;;;2.77;2.00;;;;;;;;;;5074591;28;20253;-51
2022/04/20 11:56:13;;;;;;;3.00;2.13;;;;;;;;;;5074686;28;20231;-53
2022/04/20 11:58:39;;;;;;;2.10;1.90;;;;;;;;;;5074398;28;20262;-51
2022/04/20 12:01:06;;;;;;;3.27;2.10;;;;;;;;;;5074381;28;20235;-52
2022/04/20 12:03:32;;;;;;;2.67;2.03;;;;;;;;;;5074389;28;20196;-53
2022/04/20 12:05:59;;;;;;;3.17;2.00;;;;;;;;;;5074432;28;20197;-54
2022/04/20 12:08:25;;;;;;;3.17;2.23;;;;;;;;;;5073915;28;20573;-53
2022/04/20 12:10:53;;;;;;;2.57;2.03;;;;;;;;;;5074230;28;20684;-53
2022/04/20 12:13:25;;;;;;;2.83;1.80;;;;;;;;;;5074117;28;20665;-53
2022/04/20 12:15:59;;;;;;;3.57;2.00;;;;;;;;;;5073994;28;20206;-53
2022/04/20 12:18:26;;;;;;;3.73;2.10;;;;;;;;;;5073917;28;20231;-52
2022/04/20 12:20:51;;;;;;;4.40;2.37;;;;;;;;;;5073882;28;20211;-53
2022/04/20 12:23:18;;;;;;;3.40;2.00;;;;;;;;;;5074377;28;20203;-56
2022/04/20 12:25:50;;;;;;;2.40;2.10;;;;;;;;;;5073857;28;20709;-51
2022/04/20 12:28:36;;;;;;;3.83;1.90;;;;;;;;;;5072059;28;20192;-52
2022/04/20 12:31:03;;;;;;;2.00;1.77;;;;;;;;;;5073906;28;20204;-49
2022/04/20 12:33:30;;;;;;;2.83;1.97;;;;;;;;;;5072103;28;20199;-50
2022/04/20 12:36:00;;;;;;;2.80;2.00;;;;;;;;;;5072038;28;20204;-49
2022/04/20 12:38:26;;;;;;;2.47;1.80;;;;;;;;;;5073170;28;20234;-49
2022/04/20 12:40:52;;;;;;;3.27;1.80;;;;;;;;;;5073237;28;20215;-49
2022/04/20 12:43:19;;;;;;;4.70;1.70;;;;;;;;;;5073395;28;20206;-50
2022/04/20 12:45:46;;;;;;;2.73;1.70;;;;;;;;;;5073343;28;20204;-49
2022/04/20 12:48:12;;;;;;;1.60;1.50;;;;;;;;;;5073264;28;20253;-50
2022/04/20 12:50:38;;;;;;;4.20;1.80;;;;;;;;;;5073077;28;20684;-50
2022/04/20 12:53:05;;;;;;;1.80;1.47;;;;;;;;;;5073293;28;20271;-50
2022/04/20 12:55:39;;;;;;;3.13;1.50;;;;;;;;;;5073221;28;20195;-49
2022/04/20 13:03:41;;;;;;;1.93;1.50;;;;;;;;;;5072858;28;20194;-49
2022/04/20 13:06:10;;;;;;;3.20;1.50;;;;;;;;;;5072880;28;20253;-50
2022/04/20 13:08:36;;;;;;;2.00;1.60;;;;;;;;;;5072668;28;20200;-50
2022/04/20 13:11:02;;;;;;;1.77;1.60;;;;;;;;;;5073055;28;20195;-49
2022/04/20 13:13:29;;;;;;;2.53;1.60;;;;;;;;;;5072862;28;20220;-49
2022/04/20 13:15:56;;;;;;;3.37;1.63;;;;;;;;;;5072509;28;20618;-50
2022/04/20 13:18:22;;;;;;;3.80;1.73;;;;;;;;;;5072498;28;20231;-49
2022/04/20 13:20:49;;;;;;;2.60;1.50;;;;;;;;;;5071619;28;20207;-50
2022/04/20 13:23:15;;;;;;;3.10;1.60;;;;;;;;;;5072971;28;20196;-52
2022/04/20 13:28:26;;;;;;;3.33;1.53;;;;;;;;;;5072744;28;20246;-49
2022/04/20 13:30:52;;;;;;;2.30;1.60;;;;;;;;;;5072477;28;20203;-51
2022/04/20 13:33:21;;;;;;;2.37;1.80;;;;;;;;;;5072641;28;20295;-50
2022/04/20 13:35:49;;;;;;;2.80;1.70;;;;;;;;;;5072654;28;20211;-50
2022/04/20 13:38:15;;;;;;;2.10;1.87;;;;;;;;;;5072666;28;20322;-50
2022/04/20 13:40:42;;;;;;;2.00;1.50;;;;;;;;;;5072313;28;20695;-48
2022/04/20 13:43:08;;;;;;;3.00;1.57;;;;;;;;;;5072245;28;20523;-49
2022/04/20 13:45:34;;;;;;;2.53;1.70;;;;;;;;;;5072385;28;20249;-49
2022/04/20 13:48:01;;;;;;;4.07;1.73;;;;;;;;;;5072468;28;20601;-50
2022/04/20 13:50:29;;;;;;;1.93;1.50;;;;;;;;;;5072423;28;20671;-50
2022/04/20 13:52:55;;;;;;;1.77;1.43;;;;;;;;;;5072463;28;20239;-51
2022/04/20 13:55:21;;;;;;;1.83;1.60;;;;;;;;;;5072489;28;20200;-49
2022/04/20 13:57:47;;;;;;;2.20;1.60;;;;;;;;;;5072325;28;20258;-49
2022/04/20 14:00:14;;;;;;;2.60;1.43;;;;;;;;;;5072488;28;20211;-49
2022/04/20 14:02:41;;;;;;;2.60;1.47;;;;;;;;;;5072316;28;20564;-49
2022/04/20 14:05:11;;;;;;;3.63;1.70;;;;;;;;;;5072275;28;20243;-49
2022/04/20 14:07:40;;;;;;;4.37;1.50;;;;;;;;;;5072173;28;20200;-50
2022/04/20 14:10:10;;;;;;;2.97;1.53;;;;;;;;;;5072220;28;20294;-50
2022/04/20 14:12:36;;;;;;;2.30;1.57;;;;;;;;;;5072106;28;20200;-48
2022/04/20 14:15:03;;;;;;;3.00;1.67;;;;;;;;;;5072244;28;20203;-49
2022/04/20 14:17:29;;;;;;;2.00;1.80;;;;;;;;;;5072266;28;20586;-49
2022/04/20 14:19:55;;;;;;;1.73;1.40;;;;;;;;;;5072001;28;20575;-52
2022/04/20 14:22:22;;;;;;;2.30;1.60;;;;;;;;;;5072130;28;20222;-50
2022/04/20 14:24:50;;;;;;;1.97;1.77;;;;;;;;;;5071460;28;20741;-49
2022/04/20 14:32:48;;;;;;;2.43;1.60;;;;;;;;;;5075802;28;20198;-49
2022/04/20 14:35:15;;;;;;;3.80;1.50;;;;;;;;;;5078280;28;20208;-50
2022/04/20 14:37:41;;;;;;;1.50;1.30;;;;;;;;;;5078292;28;20222;-50
2022/04/20 14:40:09;;;;;;;3.60;1.63;;;;;;;;;;5078285;28;20229;-49
2022/04/20 14:42:35;;;;;;;2.10;1.60;;;;;;;;;;5078286;28;20575;-48
2022/04/20 14:45:01;;;;;;;2.73;1.40;;;;;;;;;;5078578;28;20195;-48
2022/04/20 14:47:27;;;;;;;1.83;1.50;;;;;;;;;;5078444;28;20205;-49
2022/04/20 14:49:53;;;;;;;3.37;1.50;;;;;;;;;;5078129;28;20505;-50
2022/04/20 14:52:19;;;;;;;2.40;1.50;;;;;;;;;;5078237;28;20207;-50
2022/04/20 14:54:46;;;;;;;2.30;1.43;;;;;;;;;;5078527;28;20207;-50
2022/04/20 14:57:13;;;;;;;2.13;1.27;;;;;;;;;;5078164;28;20222;-49
2022/04/20 14:59:39;;;;;;;3.10;1.50;;;;;;;;;;5078047;28;20218;-50
2022/04/20 15:02:05;;;;;;;3.67;1.33;;;;;;;;;;5078041;28;20554;-50
2022/04/20 15:04:31;;;;;;;1.40;1.30;;;;;;;;;;5078039;28;20195;-48
2022/04/20 15:06:59;;;;;;;3.23;1.50;;;;;;;;;;5078164;28;20209;-50
2022/04/20 15:09:25;;;;;;;3.60;1.60;;;;;;;;;;5077954;28;20195;-50
2022/04/20 15:11:51;;;;;;;1.23;1.13;;;;;;;;;;5078220;28;20257;-49
2022/04/20 15:14:19;;;;;;;1.83;1.40;;;;;;;;;;5078036;28;20192;-51
2022/04/20 15:16:45;;;;;;;3.10;1.40;;;;;;;;;;5077925;28;20252;-49
2022/04/20 15:19:11;;;;;;;4.23;1.67;;;;;;;;;;5078191;28;20203;-49
2022/04/20 15:21:38;;;;;;;1.83;1.50;;;;;;;;;;5077750;28;20203;-50
2022/04/20 15:24:04;;;;;;;1.87;1.30;;;;;;;;;;5077977;28;20219;-48
2022/04/20 15:26:30;;;;;;;3.50;1.57;;;;;;;;;;5078133;28;20281;-49